createdAt,value
2019-04-30T00:00:02.190Z,18.02
2019-04-30T00:03:14.983Z,18.52
2019-04-30T00:06:15.702Z,19.82
2019-04-30T00:09:19.258Z,17.62
2019-04-30T00:12:21.300Z,18.23
2019-04-30T00:15:23.321Z,19.90
2019-04-30T00:18:25.495Z,19.02
2019-04-30T00:21:27.027Z,19.20
2019-04-30T00:24:28.620Z,18.73
2019-04-30T00:27:30.365Z,19.40
2019-04-30T00:30:31.872Z,18.75
2019-04-30T00:33:35.222Z,19.37
2019-04-30T00:36:37.479Z,18.82
2019-04-30T00:39:38.926Z,19.42
2019-04-30T00:42:40.329Z,18.75
2019-04-30T00:45:44.849Z,17.87
2019-04-30T00:48:45.576Z,17.90
2019-04-30T00:51:49.786Z,18.87
2019-04-30T00:54:50.060Z,18.55
2019-04-30T00:57:51.350Z,17.82
2019-04-30T01:01:06.819Z,18.15
2019-04-30T01:04:11.878Z,17.87
2019-04-30T01:07:15.638Z,17.02
2019-04-30T01:10:19.633Z,18.05
2019-04-30T01:13:20.433Z,17.50
2019-04-30T01:16:23.564Z,18.37
2019-04-30T01:19:30.172Z,17.15
2019-04-30T01:22:32.847Z,18.85
2019-04-30T01:25:32.549Z,18.60
2019-04-30T01:28:33.828Z,17.77
2019-04-30T01:31:37.359Z,18.05
2019-04-30T01:34:39.540Z,17.17
2019-04-30T01:37:41.010Z,17.37
2019-04-30T01:40:46.968Z,17.45
2019-04-30T01:43:45.808Z,16.52
2019-04-30T01:46:51.420Z,17.52
2019-04-30T01:49:51.077Z,16.70
2019-04-30T01:52:52.483Z,15.60
2019-04-30T01:55:55.772Z,16.07
2019-04-30T01:58:59.559Z,16.65
2019-04-30T02:02:00.982Z,15.63
2019-04-30T02:05:06.093Z,16.17
2019-04-30T02:08:08.444Z,16.25
2019-04-30T02:11:10.125Z,15.20
2019-04-30T02:14:11.466Z,15.88
2019-04-30T02:17:14.129Z,15.93
2019-04-30T02:20:15.666Z,15.45
2019-04-30T02:23:17.077Z,15.50
2019-04-30T02:26:18.836Z,15.83
2019-04-30T02:29:20.249Z,15.93
2019-04-30T02:32:21.546Z,16.50
2019-04-30T02:35:30.963Z,16.70
2019-04-30T02:38:34.151Z,17.10
2019-04-30T02:41:35.664Z,16.25
2019-04-30T02:44:37.146Z,15.08
2019-04-30T02:47:40.019Z,17.02
2019-04-30T02:50:41.424Z,16.30
2019-04-30T02:54:00.558Z,17.07
2019-04-30T02:57:03.970Z,16.48
2019-04-30T03:00:10.347Z,16.20
2019-04-30T03:03:11.594Z,17.20
2019-04-30T03:06:12.889Z,16.65
2019-04-30T03:09:14.276Z,16.85
2019-04-30T03:12:15.551Z,17.10
2019-04-30T03:15:19.487Z,16.45
2019-04-30T03:18:31.289Z,18.07
2019-04-30T03:21:40.947Z,17.45
2019-04-30T03:24:42.949Z,18.13
2019-04-30T03:27:44.613Z,17.60
2019-04-30T03:30:46.063Z,17.50
2019-04-30T03:33:51.973Z,17.75
2019-04-30T03:36:50.646Z,17.73
2019-04-30T03:39:52.010Z,18.57
2019-04-30T03:42:53.300Z,18.85
2019-04-30T03:45:55.521Z,17.73
2019-04-30T03:48:56.806Z,18.23
2019-04-30T03:51:59.836Z,18.45
2019-04-30T03:55:02.966Z,18.77
2019-04-30T03:58:05.313Z,18.87
2019-04-30T04:01:20.582Z,17.67
2019-04-30T04:04:27.151Z,18.62
2019-04-30T04:07:30.351Z,17.65
2019-04-30T04:10:33.635Z,17.77
2019-04-30T04:13:34.910Z,17.82
2019-04-30T04:16:36.422Z,18.17
2019-04-30T04:19:39.285Z,18.75
2019-04-30T04:22:40.844Z,17.90
2019-04-30T04:25:42.135Z,17.77
2019-04-30T04:28:43.803Z,18.57
2019-04-30T04:31:45.579Z,18.37
2019-04-30T04:34:47.077Z,18.37
2019-04-30T04:37:49.761Z,17.75
2019-04-30T04:40:51.458Z,17.80
2019-04-30T04:43:53.257Z,18.85
2019-04-30T04:46:54.552Z,18.80
2019-04-30T04:49:55.829Z,17.32
2019-04-30T04:52:59.323Z,17.05
2019-04-30T04:56:00.392Z,17.20
2019-04-30T04:59:01.743Z,17.75
2019-04-30T05:02:21.806Z,16.73
2019-04-30T05:05:23.737Z,17.10
2019-04-30T05:08:25.014Z,16.73
2019-04-30T05:11:26.481Z,17.05
2019-04-30T05:14:28.824Z,17.07
2019-04-30T05:17:32.107Z,16.52
2019-04-30T05:20:34.255Z,17.60
2019-04-30T05:23:35.712Z,16.42
2019-04-30T05:26:38.675Z,16.93
2019-04-30T05:29:40.735Z,15.85
2019-04-30T05:32:42.017Z,16.57
2019-04-30T05:35:43.421Z,15.38
2019-04-30T05:38:44.718Z,16.27
2019-04-30T05:41:46.345Z,15.70
2019-04-30T05:44:49.538Z,15.55
2019-04-30T05:47:51.241Z,14.40
2019-04-30T05:50:52.530Z,15.13
2019-04-30T05:53:53.843Z,14.95
2019-04-30T05:56:55.342Z,14.30
2019-04-30T05:59:58.477Z,14.98
2019-04-30T06:03:00.072Z,14.18
2019-04-30T06:06:01.559Z,14.18
2019-04-30T06:09:12.499Z,14.23
2019-04-30T06:12:18.768Z,14.40
2019-04-30T06:15:34.413Z,13.43
2019-04-30T06:18:35.889Z,13.50
2019-04-30T06:21:39.091Z,14.15
2019-04-30T06:24:40.522Z,13.95
2019-04-30T06:27:41.774Z,14.10
2019-04-30T06:30:43.185Z,13.38
2019-04-30T06:33:44.465Z,13.45
2019-04-30T06:36:53.311Z,13.03
2019-04-30T06:39:50.231Z,13.65
2019-04-30T06:42:51.830Z,12.93
2019-04-30T06:45:53.125Z,12.33
2019-04-30T06:48:54.606Z,12.68
2019-04-30T06:51:58.737Z,12.13
2019-04-30T06:55:00.206Z,12.55
2019-04-30T06:58:11.981Z,11.75
2019-04-30T07:01:04.773Z,11.93
2019-04-30T07:04:06.389Z,12.23
2019-04-30T07:07:09.183Z,11.80
2019-04-30T07:10:16.770Z,11.75
2019-04-30T07:13:26.838Z,11.65
2019-04-30T07:16:29.852Z,11.80
2019-04-30T07:19:38.234Z,13.13
2019-04-30T07:22:39.934Z,11.70
2019-04-30T07:25:39.107Z,11.73
2019-04-30T07:28:46.926Z,10.98
2019-04-30T07:31:43.694Z,10.05
2019-04-30T07:34:45.292Z,11.60
2019-04-30T07:37:46.565Z,11.20
2019-04-30T07:40:49.317Z,11.22
2019-04-30T07:43:50.870Z,12.03
2019-04-30T07:46:52.367Z,10.85
2019-04-30T07:50:14.536Z,11.40
2019-04-30T07:53:18.791Z,10.15
2019-04-30T07:56:27.982Z,10.20
2019-04-30T07:59:23.695Z,10.78
2019-04-30T08:02:26.666Z,10.20
2019-04-30T08:05:30.202Z,10.23
2019-04-30T08:08:31.604Z,9.63
2019-04-30T08:11:34.280Z,9.90
2019-04-30T08:14:35.934Z,10.43
2019-04-30T08:17:38.916Z,9.93
2019-04-30T08:20:40.239Z,9.08
2019-04-30T08:23:41.645Z,9.23
2019-04-30T08:26:42.927Z,9.38
2019-04-30T08:29:44.517Z,9.20
2019-04-30T08:32:46.175Z,8.95
2019-04-30T08:35:49.716Z,9.63
2019-04-30T08:38:50.752Z,9.50
2019-04-30T08:41:52.282Z,9.70
2019-04-30T08:44:53.758Z,10.20
2019-04-30T08:47:55.265Z,9.75
2019-04-30T08:50:56.603Z,10.28
2019-04-30T08:53:59.107Z,9.03
2019-04-30T08:57:00.985Z,9.78
2019-04-30T09:00:04.828Z,9.40
2019-04-30T09:03:06.119Z,9.45
2019-04-30T09:06:12.308Z,9.43
2019-04-30T09:09:15.720Z,9.00
2019-04-30T09:12:17.195Z,8.85
2019-04-30T09:15:18.916Z,7.83
2019-04-30T09:18:20.594Z,8.88
2019-04-30T09:21:21.892Z,8.78
2019-04-30T09:24:23.379Z,8.20
2019-04-30T09:27:24.665Z,8.75
2019-04-30T09:30:26.793Z,8.30
2019-04-30T09:33:29.408Z,8.73
2019-04-30T09:36:31.254Z,8.40
2019-04-30T09:39:32.550Z,8.93
2019-04-30T09:42:34.202Z,8.60
2019-04-30T09:45:35.473Z,8.68
2019-04-30T09:48:38.613Z,8.75
2019-04-30T09:51:40.489Z,9.65
2019-04-30T09:54:42.740Z,10.13
2019-04-30T09:57:44.033Z,10.60
2019-04-30T10:00:45.746Z,10.00
2019-04-30T10:03:47.332Z,10.72
2019-04-30T10:06:50.510Z,10.90
2019-04-30T10:09:51.953Z,9.85
2019-04-30T10:12:53.561Z,10.18
2019-04-30T10:16:13.505Z,10.75
2019-04-30T10:19:15.118Z,10.70
2019-04-30T10:22:16.526Z,10.08
2019-04-30T10:25:18.275Z,9.30
2019-04-30T10:28:19.723Z,9.93
2019-04-30T10:31:21.269Z,9.70
2019-04-30T10:34:22.674Z,9.50
2019-04-30T10:37:24.379Z,9.10
2019-04-30T10:40:25.709Z,9.28
2019-04-30T10:43:29.028Z,9.60
2019-04-30T10:46:30.210Z,9.30
2019-04-30T10:49:31.701Z,8.45
2019-04-30T10:52:33.018Z,8.78
2019-04-30T10:55:50.119Z,9.58
2019-04-30T10:58:51.413Z,9.35
2019-04-30T11:01:52.899Z,8.73
2019-04-30T11:04:54.702Z,8.93
2019-04-30T11:07:56.689Z,8.60
2019-04-30T11:10:58.051Z,8.60
2019-04-30T11:13:59.901Z,8.88
2019-04-30T11:17:01.525Z,9.30
2019-04-30T11:20:05.348Z,9.50
2019-04-30T11:23:14.117Z,8.75
2019-04-30T11:26:10.445Z,9.00
2019-04-30T11:29:12.328Z,9.05
2019-04-30T11:32:16.006Z,8.85
2019-04-30T11:35:18.440Z,8.73
2019-04-30T11:38:21.085Z,8.45
2019-04-30T11:41:30.074Z,8.25
2019-04-30T11:44:31.031Z,7.00
2019-04-30T11:47:30.345Z,6.12
2019-04-30T11:50:32.166Z,6.92
2019-04-30T11:53:33.417Z,6.33
2019-04-30T11:56:35.050Z,6.03
2019-04-30T11:59:36.494Z,6.20
2019-04-30T12:02:40.052Z,6.60
2019-04-30T12:05:41.347Z,5.95
2019-04-30T12:09:01.531Z,5.90
2019-04-30T12:15:06.854Z,5.78
2019-04-30T12:18:08.576Z,5.87
2019-04-30T12:21:09.922Z,5.67
2019-04-30T12:24:11.407Z,6.05
2019-04-30T12:27:13.877Z,6.75
2019-04-30T12:30:20.548Z,6.30
2019-04-30T12:33:20.714Z,6.67
2019-04-30T12:36:22.033Z,6.55
2019-04-30T12:39:23.511Z,7.20
2019-04-30T12:42:45.158Z,7.25
2019-04-30T12:45:46.656Z,6.67
2019-04-30T12:48:49.818Z,7.20
2019-04-30T12:51:53.222Z,6.65
2019-04-30T12:55:14.465Z,6.65
2019-04-30T12:58:05.871Z,6.80
2019-04-30T13:01:09.039Z,6.50
2019-04-30T13:04:11.037Z,6.75
2019-04-30T13:07:13.370Z,7.28
2019-04-30T13:10:15.678Z,6.60
2019-04-30T13:13:17.923Z,6.90
2019-04-30T13:16:39.683Z,6.62
2019-04-30T13:19:41.082Z,6.85
2019-04-30T13:22:44.267Z,6.40
2019-04-30T13:25:51.277Z,6.80
2019-04-30T13:28:53.597Z,6.55
2019-04-30T13:31:55.720Z,6.65
2019-04-30T13:35:00.855Z,5.87
2019-04-30T13:38:06.835Z,6.28
2019-04-30T13:41:10.246Z,6.28
2019-04-30T13:44:12.848Z,6.40
2019-04-30T13:47:14.326Z,6.83
2019-04-30T13:50:15.656Z,6.92
2019-04-30T13:53:18.589Z,7.03
2019-04-30T13:56:20.348Z,7.28
2019-04-30T13:59:21.897Z,7.22
2019-04-30T14:02:23.764Z,7.65
2019-04-30T14:05:25.574Z,7.92
2019-04-30T14:08:51.518Z,7.15
2019-04-30T14:11:53.383Z,7.70
2019-04-30T14:14:54.805Z,7.65
2019-04-30T14:17:56.335Z,7.55
2019-04-30T14:21:00.848Z,7.12
2019-04-30T14:24:01.800Z,7.08
2019-04-30T14:27:04.550Z,6.95
2019-04-30T14:30:09.198Z,7.30
2019-04-30T14:33:22.987Z,8.08
2019-04-30T14:36:14.155Z,6.90
2019-04-30T14:39:17.069Z,7.15
2019-04-30T14:42:20.785Z,7.42
2019-04-30T14:45:24.521Z,7.20
2019-04-30T14:48:31.679Z,7.25
2019-04-30T14:51:33.882Z,6.70
2019-04-30T14:54:52.366Z,7.15
2019-04-30T14:57:59.486Z,6.83
2019-04-30T15:01:11.769Z,7.03
2019-04-30T15:04:14.003Z,6.80
2019-04-30T15:07:15.424Z,6.35
2019-04-30T15:10:17.070Z,6.45
2019-04-30T15:13:19.543Z,6.08
2019-04-30T15:16:21.630Z,6.92
2019-04-30T15:19:23.277Z,6.87
2019-04-30T15:22:25.247Z,6.22
2019-04-30T15:25:34.138Z,6.87
2019-04-30T15:28:32.147Z,7.67
2019-04-30T15:31:34.419Z,7.00
2019-04-30T15:34:36.022Z,7.70
2019-04-30T15:37:39.694Z,7.85
2019-04-30T15:40:41.239Z,8.00
2019-04-30T15:43:43.170Z,7.70
2019-04-30T15:46:44.797Z,7.87
2019-04-30T15:49:46.457Z,8.03
2019-04-30T15:52:48.634Z,7.87
2019-04-30T15:55:50.262Z,7.25
2019-04-30T15:58:53.626Z,7.72
2019-04-30T16:01:56.921Z,8.15
2019-04-30T16:05:16.758Z,7.70
2019-04-30T16:08:22.858Z,8.28
2019-04-30T16:11:26.103Z,8.48
2019-04-30T16:14:30.050Z,7.83
2019-04-30T16:17:31.847Z,8.20
2019-04-30T16:20:33.285Z,8.30
2019-04-30T16:23:34.577Z,7.62
2019-04-30T16:26:47.218Z,7.55
2019-04-30T16:29:40.758Z,8.25
2019-04-30T16:32:42.242Z,7.80
2019-04-30T16:35:43.666Z,8.23
2019-04-30T16:38:45.208Z,8.60
2019-04-30T16:41:46.511Z,8.20
2019-04-30T16:44:47.934Z,8.28
2019-04-30T16:47:49.225Z,8.15
2019-04-30T16:51:10.724Z,8.50
2019-04-30T16:54:12.775Z,8.65
2019-04-30T16:57:14.247Z,9.03
2019-04-30T17:00:15.631Z,9.55
2019-04-30T17:03:21.782Z,10.32
2019-04-30T17:06:27.682Z,10.20
2019-04-30T17:09:37.796Z,10.03
2019-04-30T17:12:41.193Z,10.98
2019-04-30T17:15:44.203Z,11.05
2019-04-30T17:18:45.537Z,11.50
2019-04-30T17:21:47.465Z,12.55
2019-04-30T17:24:49.462Z,12.82
2019-04-30T17:27:51.122Z,13.00
2019-04-30T17:30:52.598Z,13.05
2019-04-30T17:33:53.901Z,13.60
2019-04-30T17:36:55.431Z,13.22
2019-04-30T17:39:58.946Z,12.47
2019-04-30T17:43:00.432Z,12.95
2019-04-30T17:46:04.191Z,13.30
2019-04-30T17:49:05.364Z,14.65
2019-04-30T17:52:08.835Z,14.50
2019-04-30T17:55:11.875Z,15.13
2019-04-30T17:58:13.385Z,13.80
2019-04-30T18:01:15.153Z,14.33
2019-04-30T18:04:18.597Z,14.65
2019-04-30T18:07:21.055Z,15.18
2019-04-30T18:10:24.745Z,14.47
2019-04-30T18:13:26.713Z,15.40
2019-04-30T18:16:28.693Z,16.87
2019-04-30T18:19:43.555Z,17.30
2019-04-30T18:22:48.834Z,20.60
2019-04-30T18:25:52.038Z,22.22
2019-04-30T18:28:54.527Z,21.52
2019-04-30T18:31:56.649Z,22.77
2019-04-30T18:34:59.136Z,23.22
2019-04-30T18:38:00.691Z,24.27
2019-04-30T18:41:02.400Z,22.05
2019-04-30T18:44:05.352Z,22.02
2019-04-30T18:47:09.046Z,22.00
2019-04-30T18:50:10.603Z,20.57
2019-04-30T18:53:18.450Z,21.30
2019-04-30T18:56:20.456Z,19.87
2019-04-30T18:59:22.802Z,18.00
2019-04-30T19:02:24.279Z,17.10
2019-04-30T19:05:29.397Z,17.70
2019-04-30T19:08:41.682Z,17.87
2019-04-30T19:11:51.271Z,17.35
2019-04-30T19:15:12.851Z,17.07
2019-04-30T19:18:19.244Z,17.12
2019-04-30T19:21:21.808Z,16.48
2019-04-30T19:24:23.693Z,16.42
2019-04-30T19:27:25.201Z,15.80
2019-04-30T19:30:29.520Z,16.48
2019-04-30T19:33:32.204Z,17.87
2019-04-30T19:36:37.685Z,17.82
2019-04-30T19:39:40.660Z,19.42
2019-04-30T19:42:48.900Z,20.23
2019-04-30T19:45:51.311Z,20.57
2019-04-30T19:48:55.198Z,19.10
2019-04-30T19:52:08.572Z,20.12
2019-04-30T19:55:03.749Z,20.85
2019-04-30T19:58:08.049Z,21.30
2019-04-30T20:01:09.660Z,20.70
2019-04-30T20:04:11.023Z,21.30
2019-04-30T20:07:12.353Z,20.37
2019-04-30T20:10:13.959Z,21.42
2019-04-30T20:13:22.496Z,22.87
2019-04-30T20:16:19.574Z,22.62
2019-04-30T20:19:21.072Z,21.82
2019-04-30T20:22:23.427Z,22.00
2019-04-30T20:25:25.143Z,21.73
2019-04-30T20:28:38.520Z,22.70
2019-04-30T20:31:30.574Z,22.42
2019-04-30T20:34:31.841Z,20.72
2019-04-30T20:37:35.337Z,20.90
2019-04-30T20:40:43.600Z,21.00
2019-04-30T20:43:41.443Z,21.27
2019-04-30T20:46:42.880Z,20.23
2019-04-30T20:49:44.377Z,19.73
2019-04-30T20:52:46.722Z,18.87
2019-04-30T20:55:49.525Z,18.67
2019-04-30T20:58:57.394Z,17.20
2019-04-30T21:01:56.346Z,17.73
2019-04-30T21:04:57.685Z,17.45
2019-04-30T21:07:58.962Z,17.75
2019-04-30T21:11:01.005Z,17.57
2019-04-30T21:14:03.041Z,16.52
2019-04-30T21:17:04.874Z,17.87
2019-04-30T21:20:09.489Z,16.32
2019-04-30T21:23:10.285Z,17.25
2019-04-30T21:26:11.587Z,17.92
2019-04-30T21:29:15.639Z,16.87
2019-04-30T21:32:18.961Z,17.67
2019-04-30T21:35:42.883Z,17.75
2019-04-30T21:38:44.274Z,18.27
2019-04-30T21:41:45.837Z,17.20
2019-04-30T21:44:47.141Z,18.00
2019-04-30T21:47:56.025Z,21.12
2019-04-30T21:50:51.970Z,22.00
2019-04-30T21:53:53.591Z,21.87
2019-04-30T21:56:55.182Z,21.48
2019-04-30T21:59:58.782Z,20.62
2019-04-30T22:03:00.279Z,20.70
2019-04-30T22:06:01.915Z,19.52
2019-04-30T22:09:04.961Z,19.82
2019-04-30T22:12:06.496Z,20.75
2019-04-30T22:15:08.116Z,20.55
2019-04-30T22:18:10.096Z,20.52
2019-04-30T22:21:11.497Z,18.50
2019-04-30T22:24:12.966Z,19.98
2019-04-30T22:27:14.280Z,19.55
2019-04-30T22:30:15.737Z,18.95
2019-04-30T22:33:19.200Z,19.55
2019-04-30T22:36:25.275Z,18.27
2019-04-30T22:39:34.466Z,19.60
2019-04-30T22:42:36.070Z,21.52
2019-04-30T22:45:40.480Z,19.90
2019-04-30T22:48:42.075Z,19.45
2019-04-30T22:51:43.592Z,21.42
2019-04-30T22:54:45.586Z,21.50
2019-04-30T22:57:46.879Z,21.90
2019-04-30T23:00:48.854Z,22.82
2019-04-30T23:03:52.091Z,23.22
2019-04-30T23:06:53.342Z,21.65
2019-04-30T23:09:54.625Z,20.37
2019-04-30T23:12:56.091Z,27.52
2019-04-30T23:15:57.494Z,24.47
2019-04-30T23:18:59.142Z,25.08
2019-04-30T23:22:00.529Z,22.27
2019-04-30T23:25:04.210Z,21.30
2019-04-30T23:28:05.497Z,22.98
2019-04-30T23:31:06.905Z,26.70
2019-04-30T23:34:17.771Z,23.00
2019-04-30T23:37:12.227Z,23.05
2019-04-30T23:40:19.962Z,25.95
2019-04-30T23:43:21.635Z,25.88
2019-04-30T23:46:22.947Z,27.10
2019-04-30T23:49:24.343Z,26.75
2019-04-30T23:52:25.624Z,26.57
2019-04-30T23:55:28.459Z,25.30
2019-04-30T23:58:29.755Z,24.35
